createdAt,value
2022-10-05T00:01:41.063Z,99.90
2022-10-05T00:06:50.703Z,99.90
2022-10-05T00:11:53.937Z,99.90
2022-10-05T00:16:57.569Z,99.90
2022-10-05T00:22:10.593Z,99.90
2022-10-05T00:27:41.181Z,99.90
2022-10-05T00:32:46.173Z,99.90
2022-10-05T00:37:54.868Z,99.90
2022-10-05T00:43:14.959Z,99.90
2022-10-05T00:48:25.230Z,99.90
2022-10-05T00:53:42.493Z,99.90
2022-10-05T00:58:59.223Z,99.90
2022-10-05T01:04:11.377Z,99.90
2022-10-05T01:09:22.589Z,99.90
2022-10-05T01:14:32.486Z,99.90
2022-10-05T01:20:00.831Z,99.90
2022-10-05T01:25:21.322Z,99.90
2022-10-05T01:30:26.477Z,99.90
2022-10-05T01:35:34.410Z,99.90
2022-10-05T01:40:46.875Z,99.90
2022-10-05T01:46:00.780Z,99.90
2022-10-05T01:51:11.466Z,99.90
2022-10-05T01:56:22.841Z,99.90
2022-10-05T02:01:35.468Z,99.90
2022-10-05T02:06:43.477Z,99.90
2022-10-05T02:11:54.785Z,99.90
2022-10-05T02:17:05.655Z,99.90
2022-10-05T02:22:13.151Z,99.90
2022-10-05T02:27:23.554Z,99.90
2022-10-05T02:32:34.253Z,99.90
2022-10-05T02:37:47.471Z,99.90
2022-10-05T02:42:59.920Z,99.90
2022-10-05T02:48:14.580Z,99.90
2022-10-05T02:53:25.793Z,99.90
2022-10-05T02:58:39.050Z,99.90
2022-10-05T03:03:49.834Z,99.90
2022-10-05T03:09:01.430Z,99.90
2022-10-05T03:14:18.930Z,99.90
2022-10-05T03:19:46.031Z,99.90
2022-10-05T03:25:11.863Z,99.90
2022-10-05T03:30:18.196Z,99.90
2022-10-05T03:35:30.794Z,99.90
2022-10-05T03:40:41.549Z,99.90
2022-10-05T03:45:52.834Z,99.90
2022-10-05T03:51:05.969Z,99.90
2022-10-05T03:56:14.648Z,99.90
2022-10-05T04:01:22.392Z,99.90
2022-10-05T04:06:32.135Z,99.90
2022-10-05T04:11:39.330Z,99.90
2022-10-05T04:16:47.537Z,99.90
2022-10-05T04:21:59.513Z,99.90
2022-10-05T04:27:09.370Z,99.90
2022-10-05T04:32:28.665Z,99.90
2022-10-05T04:37:46.536Z,99.90
2022-10-05T04:43:00.215Z,99.90
2022-10-05T04:48:20.846Z,99.90
2022-10-05T04:53:31.236Z,99.90
2022-10-05T04:58:54.740Z,99.90
2022-10-05T05:04:14.974Z,99.90
2022-10-05T05:17:04.521Z,99.90
2022-10-05T05:22:16.136Z,99.90
2022-10-05T05:42:38.740Z,99.90
2022-10-05T05:47:51.978Z,99.90
2022-10-05T05:53:02.650Z,99.90
2022-10-05T06:20:53.247Z,99.90
2022-10-05T06:26:17.299Z,99.90
2022-10-05T06:31:34.937Z,99.90
2022-10-05T06:36:44.098Z,99.90
2022-10-05T06:42:01.228Z,99.90
2022-10-05T06:47:33.258Z,99.90
2022-10-05T06:53:13.767Z,99.90
2022-10-05T06:58:36.445Z,99.90
2022-10-05T07:11:04.498Z,99.90
2022-10-05T07:16:18.279Z,99.90
2022-10-05T07:21:30.986Z,99.90
2022-10-05T07:26:42.628Z,99.90
2022-10-05T07:31:54.990Z,99.90
2022-10-05T07:37:22.543Z,99.90
2022-10-05T07:42:45.149Z,99.90
2022-10-05T07:47:55.846Z,99.90
2022-10-05T07:53:05.226Z,99.90
2022-10-05T07:58:16.972Z,99.90
2022-10-05T08:03:31.569Z,99.90
2022-10-05T08:08:46.390Z,99.90
2022-10-05T08:13:55.552Z,99.90
2022-10-05T08:19:06.736Z,99.90
2022-10-05T08:24:20.136Z,99.90
2022-10-05T08:29:31.896Z,99.90
2022-10-05T08:34:46.036Z,99.90
2022-10-05T08:39:54.634Z,99.90
2022-10-05T08:45:30.726Z,99.90
2022-10-05T08:51:16.813Z,99.90
2022-10-05T08:56:32.626Z,99.90
2022-10-05T09:01:55.488Z,99.90
2022-10-05T09:07:31.409Z,99.90
2022-10-05T09:12:58.564Z,99.90
2022-10-05T09:33:48.993Z,99.90
2022-10-05T09:39:27.869Z,99.90
2022-10-05T09:44:52.971Z,99.90
2022-10-05T09:50:49.517Z,99.90
2022-10-05T09:56:21.269Z,99.90
2022-10-05T10:01:36.707Z,99.90
2022-10-05T10:07:10.888Z,99.90
2022-10-05T10:12:35.619Z,99.90
2022-10-05T10:17:55.603Z,99.90
2022-10-05T10:23:21.710Z,99.90
2022-10-05T10:28:58.576Z,99.90
2022-10-05T10:34:28.775Z,99.90
2022-10-05T10:39:45.254Z,99.90
2022-10-05T10:45:19.797Z,99.90
2022-10-05T10:50:28.831Z,99.90
2022-10-05T10:55:41.165Z,99.90
2022-10-05T11:00:54.566Z,99.90
2022-10-05T11:14:14.196Z,99.90
2022-10-05T11:20:02.580Z,99.90
2022-10-05T11:25:35.081Z,99.90
2022-10-05T11:31:02.465Z,99.90
2022-10-05T11:36:40.113Z,99.90
2022-10-05T11:49:35.608Z,99.30
2022-10-05T11:55:09.980Z,99.90
2022-10-05T12:00:18.363Z,98.90
2022-10-05T12:05:52.218Z,97.20
2022-10-05T12:11:08.703Z,93.60
2022-10-05T12:16:19.096Z,89.00
2022-10-05T12:21:33.192Z,87.40
2022-10-05T12:26:41.628Z,87.50
2022-10-05T12:31:55.679Z,88.50
2022-10-05T12:37:11.126Z,85.10
2022-10-05T12:42:22.679Z,83.30
2022-10-05T12:47:36.228Z,83.60
2022-10-05T12:52:52.483Z,84.60
2022-10-05T12:58:05.990Z,86.10
2022-10-05T13:03:17.910Z,87.50
2022-10-05T13:08:29.356Z,87.30
2022-10-05T13:13:41.422Z,88.60
2022-10-05T13:18:59.105Z,85.80
2022-10-05T13:24:09.289Z,83.10
2022-10-05T13:29:22.282Z,86.00
2022-10-05T13:34:33.499Z,83.70
2022-10-05T13:39:54.115Z,86.30
2022-10-05T13:45:01.152Z,85.20
2022-10-05T13:50:16.694Z,86.70
2022-10-05T13:55:37.289Z,86.80
2022-10-05T14:00:46.569Z,90.20
2022-10-05T14:05:55.811Z,90.80
2022-10-05T14:18:37.815Z,89.70
2022-10-05T14:23:41.685Z,90.50
2022-10-05T14:28:58.636Z,90.30
2022-10-05T14:34:31.356Z,91.70
2022-10-05T14:39:41.005Z,93.00
2022-10-05T14:44:45.456Z,93.30
2022-10-05T14:50:15.000Z,94.50
2022-10-05T14:55:29.037Z,95.30
2022-10-05T15:00:43.584Z,95.00
2022-10-05T15:05:53.656Z,95.50
2022-10-05T15:11:02.868Z,94.70
2022-10-05T15:16:14.853Z,94.80
2022-10-05T15:21:36.095Z,95.90
2022-10-05T15:26:47.654Z,96.70
2022-10-05T15:32:00.472Z,97.10
2022-10-05T15:37:16.180Z,98.00
2022-10-05T15:42:25.180Z,99.80
2022-10-05T15:47:43.544Z,99.90
2022-10-05T15:52:52.390Z,99.90
2022-10-05T15:58:11.663Z,99.90
2022-10-05T16:03:23.284Z,99.90
2022-10-05T16:08:51.570Z,99.90
2022-10-05T16:14:03.468Z,99.90
2022-10-05T16:19:15.625Z,99.90
2022-10-05T16:24:39.687Z,99.90
2022-10-05T16:29:50.627Z,99.90
2022-10-05T16:35:07.877Z,99.90
2022-10-05T16:40:20.940Z,99.90
2022-10-05T16:45:44.740Z,99.90
2022-10-05T16:50:55.209Z,99.90
2022-10-05T16:56:04.053Z,99.90
2022-10-05T17:01:17.582Z,99.90
2022-10-05T17:06:35.370Z,99.90
2022-10-05T17:11:55.497Z,99.90
2022-10-05T17:17:17.182Z,99.90
2022-10-05T17:22:27.197Z,99.90
2022-10-05T17:27:35.635Z,99.90
2022-10-05T17:32:55.541Z,99.90
2022-10-05T17:38:14.363Z,99.90
2022-10-05T17:43:26.824Z,99.90
2022-10-05T17:49:06.825Z,99.90
2022-10-05T17:54:38.189Z,99.90
2022-10-05T17:59:56.805Z,99.90
2022-10-05T18:05:06.663Z,99.90
2022-10-05T18:10:28.813Z,99.90
2022-10-05T18:15:46.544Z,99.90
2022-10-05T18:21:18.439Z,99.90
2022-10-05T18:26:34.748Z,99.90
2022-10-05T18:31:51.556Z,99.90
2022-10-05T18:37:04.266Z,99.90
2022-10-05T18:42:17.913Z,99.90
2022-10-05T18:47:33.561Z,99.90
2022-10-05T18:52:50.851Z,99.90
2022-10-05T18:58:10.944Z,99.90
2022-10-05T19:03:21.058Z,99.90
2022-10-05T19:08:32.989Z,99.90
2022-10-05T19:13:47.031Z,99.90
2022-10-05T19:19:09.697Z,99.90
2022-10-05T19:24:47.195Z,99.90
2022-10-05T19:30:14.650Z,99.90
2022-10-05T19:35:27.545Z,99.90
2022-10-05T19:40:38.713Z,99.90
2022-10-05T20:01:24.159Z,99.90
2022-10-05T20:06:29.494Z,99.90
2022-10-05T20:11:34.726Z,99.90
2022-10-05T20:16:57.694Z,99.90
2022-10-05T20:22:24.946Z,99.90
2022-10-05T20:27:44.747Z,99.90
2022-10-05T20:32:49.918Z,99.90
2022-10-05T20:37:53.389Z,99.90
2022-10-05T20:42:56.981Z,99.90
2022-10-05T20:48:02.808Z,99.90
2022-10-05T20:53:11.080Z,99.90
2022-10-05T20:58:18.043Z,99.90
2022-10-05T21:03:22.891Z,99.90
2022-10-05T21:08:51.500Z,99.90
2022-10-05T21:13:54.757Z,99.90
2022-10-05T21:18:59.260Z,99.90
2022-10-05T21:24:03.557Z,99.90
2022-10-05T21:29:12.127Z,99.90
2022-10-05T21:34:17.140Z,99.90
2022-10-05T21:40:10.167Z,99.90
2022-10-05T21:45:13.314Z,99.90
2022-10-05T21:50:18.084Z,99.90
2022-10-05T21:55:21.600Z,99.90
2022-10-05T22:00:24.759Z,99.90
2022-10-05T22:05:29.701Z,99.90
2022-10-05T22:10:33.705Z,99.90
2022-10-05T22:15:40.052Z,99.90
2022-10-05T22:20:45.084Z,99.90
2022-10-05T22:25:48.622Z,99.90
2022-10-05T22:30:52.979Z,99.90
2022-10-05T22:35:58.942Z,99.90
2022-10-05T22:41:02.229Z,99.90
2022-10-05T22:46:09.655Z,99.90
2022-10-05T22:51:14.408Z,99.90
2022-10-05T22:56:18.130Z,99.90
2022-10-05T23:01:21.785Z,99.90
2022-10-05T23:06:26.817Z,99.90
2022-10-05T23:11:31.136Z,99.90
2022-10-05T23:16:34.429Z,99.90
2022-10-05T23:21:39.568Z,99.90
2022-10-05T23:26:42.897Z,99.90
2022-10-05T23:31:46.107Z,99.90
